Time;durP1;ratioP1;P1;durP2;ratioP2;P2;SDS_P1;SDS_P2;PMS_P1;PMS_P2;Temp;Humidity;BMP_temperature;BMP_pressure;BME280_temperature;BME280_humidity;BME280_pressure;Samples;Min_cycle;Max_cycle;Signal;HPM_P1;HPM_P2
2022/08/10 00:01:22;;;;;;;1.17;0.70;;;25.70;46.60;24.60;102353.00;;;;5085498;28;20416;-66
2022/08/10 00:04:08;;;;;;;1.75;0.82;;;25.70;46.60;24.60;102361.00;;;;5064677;28;20056;-66
2022/08/10 00:06:54;;;;;;;1.20;0.80;;;25.70;46.60;24.60;102355.00;;;;5089933;28;20040;-66
2022/08/10 00:09:40;;;;;;;1.13;0.80;;;25.80;46.80;24.60;102360.00;;;;5088488;28;20041;-66
2022/08/10 00:12:26;;;;;;;0.65;0.65;;;25.70;46.70;24.60;102357.00;;;;5084064;28;20391;-66
2022/08/10 00:15:15;;;;;;;6.32;1.17;;;25.70;46.80;24.60;102355.00;;;;5086779;28;20033;-67
2022/08/10 00:18:01;;;;;;;0.68;0.68;;;25.70;46.80;24.60;102356.00;;;;5092594;28;20110;-66
2022/08/10 00:20:47;;;;;;;0.95;0.70;;;25.70;46.80;24.60;102349.00;;;;5087890;28;20478;-66
2022/08/10 00:23:34;;;;;;;1.65;0.60;;;25.70;46.80;24.60;102353.00;;;;5094169;28;20044;-66
2022/08/10 00:26:20;;;;;;;1.50;0.80;;;25.70;46.90;24.60;102344.00;;;;5069138;28;20470;-66
2022/08/10 00:29:06;;;;;;;1.10;0.75;;;25.60;46.80;24.60;102338.00;;;;5084559;28;20430;-66
2022/08/10 00:31:52;;;;;;;0.95;0.80;;;25.70;46.90;24.60;102338.00;;;;5089113;28;20044;-66
2022/08/10 00:34:38;;;;;;;2.47;0.70;;;25.70;46.90;24.60;102334.00;;;;5086658;28;20037;-66
2022/08/10 00:37:24;;;;;;;0.75;0.75;;;25.70;46.90;24.60;102332.00;;;;5091310;28;20500;-66
2022/08/10 00:40:11;;;;;;;1.80;0.77;;;25.70;47.00;24.60;102342.00;;;;5088011;28;20604;-66
2022/08/10 00:42:57;;;;;;;1.08;0.85;;;25.70;47.00;24.60;102333.00;;;;5079162;28;20043;-66
2022/08/10 00:45:43;;;;;;;0.60;0.60;;;25.70;47.10;24.60;102340.00;;;;5089398;28;20520;-66
2022/08/10 00:48:29;;;;;;;1.65;0.70;;;25.70;47.20;24.60;102334.00;;;;5096309;28;20048;-66
2022/08/10 00:51:15;;;;;;;0.60;0.60;;;25.70;47.20;24.60;102330.00;;;;5090774;28;20044;-66
2022/08/10 00:54:01;;;;;;;1.42;0.90;;;25.70;47.10;24.60;102339.00;;;;5082418;28;20040;-66
2022/08/10 00:56:47;;;;;;;2.05;0.80;;;25.70;47.20;24.60;102335.00;;;;5081900;28;20061;-66
2022/08/10 00:59:33;;;;;;;0.88;0.80;;;25.70;47.30;24.60;102335.00;;;;5076783;28;20421;-66
2022/08/10 01:02:20;;;;;;;1.40;0.73;;;25.60;47.20;24.50;102331.00;;;;5076410;28;20056;-66
2022/08/10 01:05:10;;;;;;;1.10;0.80;;;25.60;47.40;24.50;102326.00;;;;5074474;28;20401;-66
2022/08/10 01:08:08;;;;;;;1.00;0.60;;;25.60;47.50;24.60;102333.00;;;;5081362;28;20051;-66
2022/08/10 01:11:40;;;;;;;0.70;0.70;;;25.50;47.40;24.50;102318.00;;;;5048556;28;20043;-66
2022/08/10 01:14:27;;;;;;;0.60;0.55;;;25.60;47.60;24.50;102326.00;;;;5073954;28;20047;-66
2022/08/10 01:17:25;;;;;;;0.60;0.60;;;25.60;47.60;24.50;102315.00;;;;5092572;28;20039;-66
2022/08/10 01:20:31;;;;;;;2.03;0.55;;;25.60;47.50;24.50;102316.00;;;;5057969;28;20032;-66
2022/08/10 01:23:51;;;;;;;0.73;0.70;;;25.60;47.60;24.50;102316.00;;;;5073581;28;20097;-66
2022/08/10 01:27:05;;;;;;;0.60;0.60;;;25.60;47.70;24.50;102318.00;;;;5086344;28;20105;-66
2022/08/10 01:29:57;;;;;;;0.93;0.50;;;25.50;47.60;24.50;102320.00;;;;5088154;28;20397;-66
2022/08/10 01:33:18;;;;;;;0.70;0.70;;;25.50;47.60;24.50;102314.00;;;;5083883;28;20032;-66
2022/08/10 01:36:08;;;;;;;2.65;0.60;;;25.50;47.70;24.40;102306.00;;;;5077834;28;20028;-66
2022/08/10 01:38:55;;;;;;;2.13;0.50;;;25.50;48.30;24.40;102316.00;;;;5049673;28;20036;-66
2022/08/10 01:41:43;;;;;;;0.80;0.60;;;25.50;47.60;24.50;102310.00;;;;5080220;28;20044;-67
2022/08/10 01:44:36;;;;;;;0.90;0.55;;;25.40;47.70;24.40;102303.00;;;;5063054;28;20116;-66
2022/08/10 01:50:44;;;;;;;1.10;0.73;;;25.40;47.80;24.40;102297.00;;;;5068888;28;20043;-66
2022/08/10 01:53:43;;;;;;;0.68;0.68;;;25.50;47.90;24.40;102299.00;;;;5077172;28;20148;-66
2022/08/10 01:56:32;;;;;;;0.82;0.65;;;25.40;47.80;24.40;102298.00;;;;5081626;28;20044;-66
2022/08/10 01:59:33;;;;;;;0.60;0.32;;;25.40;47.80;24.40;102302.00;;;;5050139;28;20094;-66
2022/08/10 02:02:19;;;;;;;1.58;0.60;;;25.40;47.70;24.40;102299.00;;;;5082011;28;20474;-67
2022/08/10 02:05:05;;;;;;;1.65;0.57;;;25.40;47.70;24.40;102300.00;;;;5078403;28;20089;-66
2022/08/10 02:07:51;;;;;;;0.82;0.70;;;25.40;47.80;24.40;102296.00;;;;5052754;28;20063;-66
2022/08/10 02:10:38;;;;;;;0.70;0.70;;;25.30;47.70;24.40;102304.00;;;;5073808;28;20155;-66
2022/08/10 02:13:24;;;;;;;1.45;0.90;;;25.40;47.80;24.40;102306.00;;;;5062510;28;20040;-66
2022/08/10 02:16:10;;;;;;;1.33;0.75;;;25.30;47.70;24.40;102302.00;;;;5080882;28;20036;-66
2022/08/10 02:18:56;;;;;;;0.68;0.60;;;25.30;47.70;24.40;102310.00;;;;5081056;28;20469;-66
2022/08/10 02:21:43;;;;;;;0.68;0.50;;;25.30;47.80;24.40;102314.00;;;;5060706;28;20047;-66
2022/08/10 02:24:29;;;;;;;0.65;0.52;;;25.30;47.80;24.40;102309.00;;;;5073499;28;20401;-66
2022/08/10 02:27:15;;;;;;;0.70;0.60;;;25.30;47.80;24.40;102301.00;;;;5077184;28;20046;-66
2022/08/10 02:30:03;;;;;;;0.47;0.47;;;25.30;47.80;24.40;102319.00;;;;5077602;28;20497;-66
2022/08/10 02:32:49;;;;;;;;;;;25.30;47.80;24.30;102316.00;;;;5066627;28;20047;-66
2022/08/10 02:35:35;;;;;;;0.77;0.50;;;25.30;47.60;24.30;102320.00;;;;5075755;28;19968;-66
2022/08/10 02:38:31;;;;;;;0.77;0.45;;;25.30;47.60;24.30;102316.00;;;;5079804;28;20087;-66
2022/08/10 02:41:58;;;;;;;1.02;0.75;;;25.30;47.80;24.30;102315.00;;;;5075520;28;20039;-66
2022/08/10 02:44:55;;;;;;;0.60;0.60;;;25.30;47.80;24.30;102322.00;;;;5089384;28;20040;-66
2022/08/10 02:48:11;;;;;;;0.73;0.73;;;25.20;47.70;24.30;102315.00;;;;5071264;28;20597;-66
2022/08/10 02:51:01;;;;;;;0.70;0.60;;;25.20;47.80;24.30;102306.00;;;;5070639;28;20039;-66
2022/08/10 02:53:50;;;;;;;0.60;0.60;;;25.20;47.90;24.30;102303.00;;;;5050527;28;20042;-66
2022/08/10 02:56:50;;;;;;;1.27;0.68;;;25.20;48.00;24.30;102312.00;;;;5083531;28;20092;-66
2022/08/10 02:59:43;;;;;;;0.63;0.63;;;25.20;48.00;24.30;102307.00;;;;5078081;28;20048;-66
2022/08/10 03:02:34;;;;;;;0.82;0.77;;;25.20;48.10;24.30;102288.00;;;;5070411;28;20048;-66
2022/08/10 03:05:20;;;;;;;0.57;0.55;;;25.20;48.00;24.30;102304.00;;;;5078254;28;20048;-66
2022/08/10 03:08:06;;;;;;;0.60;0.60;;;25.20;48.00;24.30;102303.00;;;;5055834;28;20043;-66
2022/08/10 03:10:52;;;;;;;0.55;0.50;;;25.20;48.00;24.30;102303.00;;;;5068326;28;20112;-66
2022/08/10 03:13:38;;;;;;;0.70;0.70;;;25.20;48.00;24.30;102304.00;;;;5072487;28;20047;-66
2022/08/10 03:16:24;;;;;;;0.60;0.60;;;25.20;48.00;24.30;102296.00;;;;5064979;28;20040;-66
2022/08/10 03:19:10;;;;;;;0.85;0.60;;;25.20;48.00;24.30;102303.00;;;;5053207;28;20028;-66
2022/08/10 03:21:57;;;;;;;0.60;0.60;;;25.20;48.00;24.30;102301.00;;;;5077652;28;20085;-66
2022/08/10 03:24:43;;;;;;;0.70;0.70;;;25.10;48.00;24.30;102303.00;;;;5077351;28;20744;-66
2022/08/10 03:27:29;;;;;;;0.93;0.90;;;25.10;48.00;24.30;102301.00;;;;5069354;28;20046;-66
2022/08/10 03:30:15;;;;;;;0.73;0.68;;;25.10;48.00;24.30;102305.00;;;;5073748;28;20048;-66
2022/08/10 03:33:05;;;;;;;1.25;0.70;;;25.20;48.10;24.30;102302.00;;;;5079814;28;20078;-66
2022/08/10 03:35:51;;;;;;;0.95;0.85;;;25.10;48.10;24.30;102303.00;;;;5054970;28;20397;-66
2022/08/10 03:38:39;;;;;;;1.90;1.00;;;25.10;48.10;24.20;102305.00;;;;5072499;28;20451;-66
2022/08/10 03:41:54;;;;;;;0.98;0.88;;;25.10;48.10;24.20;102306.00;;;;5067407;28;20051;-66
2022/08/10 03:44:40;;;;;;;0.63;0.60;;;25.10;48.20;24.20;102302.00;;;;5073805;28;20046;-66
2022/08/10 03:47:26;;;;;;;0.80;0.80;;;25.10;48.10;24.20;102298.00;;;;5059840;28;20032;-66
2022/08/10 03:50:12;;;;;;;0.60;0.60;;;25.10;48.80;24.20;102304.00;;;;5059544;28;20043;-66
2022/08/10 03:52:58;;;;;;;0.88;0.75;;;25.10;48.10;24.20;102307.00;;;;5080770;28;20496;-66
2022/08/10 03:55:44;;;;;;;0.65;0.60;;;25.10;48.10;24.20;102304.00;;;;5060058;28;20035;-66
2022/08/10 03:58:31;;;;;;;0.90;0.70;;;25.10;48.20;24.20;102296.00;;;;5076174;28;20386;-66
2022/08/10 04:01:17;;;;;;;1.27;0.80;;;25.10;48.30;24.20;102298.00;;;;5066206;28;20052;-66
2022/08/10 04:04:03;;;;;;;2.15;0.82;;;25.00;48.30;24.20;102297.00;;;;5069124;28;20040;-66
2022/08/10 04:06:57;;;;;;;0.77;0.75;;;25.10;48.40;24.20;102298.00;;;;5088992;28;20036;-66
2022/08/10 04:09:43;;;;;;;1.05;0.77;;;25.10;48.30;24.20;102300.00;;;;5087494;28;20048;-66
2022/08/10 04:12:29;;;;;;;1.13;0.90;;;25.00;48.20;24.20;102296.00;;;;5072485;28;20040;-66
2022/08/10 04:15:15;;;;;;;1.38;0.80;;;25.00;48.30;24.20;102296.00;;;;5083876;28;20040;-66
2022/08/10 04:18:01;;;;;;;1.50;0.90;;;25.10;48.40;24.20;102300.00;;;;5095184;28;20039;-66
2022/08/10 04:20:55;;;;;;;1.45;0.80;;;25.00;48.30;24.20;102296.00;;;;5091258;28;20035;-66
2022/08/10 04:23:47;;;;;;;0.80;0.60;;;25.00;48.30;24.20;102297.00;;;;5065948;28;20481;-66
2022/08/10 04:26:33;;;;;;;0.70;0.60;;;25.10;48.30;24.20;102298.00;;;;5064259;28;20052;-66
2022/08/10 04:29:19;;;;;;;1.30;0.70;;;24.90;48.20;24.20;102297.00;;;;5074243;28;20071;-66
2022/08/10 04:32:05;;;;;;;1.08;0.93;;;25.10;48.40;24.20;102296.00;;;;5078684;28;20036;-66
2022/08/10 04:34:51;;;;;;;1.92;0.90;;;25.00;48.30;24.10;102299.00;;;;5058327;28;20036;-66
2022/08/10 04:37:38;;;;;;;2.55;1.13;;;25.00;48.30;24.10;102292.00;;;;5074154;28;20043;-66
2022/08/10 04:40:24;;;;;;;1.42;1.10;;;25.00;48.30;24.10;102297.00;;;;5074695;28;20417;-66
2022/08/10 04:43:10;;;;;;;1.10;0.90;;;25.00;48.30;24.10;102299.00;;;;5088654;28;20031;-66
2022/08/10 04:45:56;;;;;;;0.80;0.80;;;25.00;48.30;24.10;102289.00;;;;5072034;28;20036;-66
2022/08/10 04:48:42;;;;;;;0.93;0.93;;;25.00;48.30;24.10;102295.00;;;;5084565;28;20413;-66
2022/08/10 04:51:28;;;;;;;2.35;1.00;;;25.00;48.30;24.10;102297.00;;;;5081835;28;20573;-66
2022/08/10 04:54:14;;;;;;;2.65;1.63;;;25.00;48.30;24.10;102297.00;;;;5091133;28;20035;-66
2022/08/10 04:57:00;;;;;;;0.88;0.85;;;25.00;48.40;24.10;102298.00;;;;5091702;28;20481;-66
2022/08/10 04:59:47;;;;;;;2.00;1.00;;;25.00;48.40;24.10;102295.00;;;;5085035;28;20036;-66
2022/08/10 05:02:33;;;;;;;0.88;0.88;;;25.00;48.30;24.10;102301.00;;;;5064808;28;20044;-66
2022/08/10 05:05:19;;;;;;;1.75;1.15;;;25.00;48.40;24.10;102294.00;;;;5068383;28;20044;-66
2022/08/10 05:08:05;;;;;;;1.83;1.10;;;25.00;48.40;24.10;102298.00;;;;5092280;28;20032;-66
2022/08/10 05:10:52;;;;;;;1.35;0.80;;;25.00;48.40;24.10;102297.00;;;;5084683;28;20378;-66
2022/08/10 05:13:38;;;;;;;1.13;0.90;;;25.00;48.40;24.10;102300.00;;;;5091689;28;20036;-66
2022/08/10 05:16:24;;;;;;;1.05;0.98;;;24.90;48.30;24.10;102310.00;;;;5088279;28;20032;-66
2022/08/10 05:19:10;;;;;;;1.05;1.00;;;25.00;48.40;24.10;102307.00;;;;5086346;28;20106;-66
2022/08/10 05:21:56;;;;;;;1.83;0.90;;;24.90;48.70;24.10;102299.00;;;;5092060;28;20408;-66
2022/08/10 05:24:42;;;;;;;1.80;1.10;;;25.00;48.40;24.10;102304.00;;;;5097424;28;20462;-66
2022/08/10 05:27:28;;;;;;;1.67;1.20;;;25.00;48.40;24.10;102309.00;;;;5091484;28;20036;-66
2022/08/10 05:30:17;;;;;;;2.72;1.10;;;24.90;48.40;24.10;102308.00;;;;5087418;28;20474;-66
2022/08/10 05:33:03;;;;;;;1.08;1.00;;;24.90;48.50;24.10;102303.00;;;;5091461;28;20480;-66
2022/08/10 05:35:49;;;;;;;1.63;1.13;;;25.00;48.60;24.10;102305.00;;;;5090752;28;20089;-66
2022/08/10 05:38:35;;;;;;;0.90;0.80;;;25.00;48.60;24.10;102312.00;;;;5088897;28;20051;-66
2022/08/10 05:41:21;;;;;;;1.42;0.80;;;25.00;48.60;24.10;102303.00;;;;5065201;28;20039;-66
2022/08/10 05:44:07;;;;;;;1.33;1.00;;;25.00;48.60;24.10;102307.00;;;;5075300;28;20039;-66
2022/08/10 05:46:54;;;;;;;0.93;0.90;;;25.00;48.60;24.10;102310.00;;;;5062734;28;20036;-66
2022/08/10 05:49:40;;;;;;;1.37;0.87;;;25.00;48.60;24.10;102310.00;;;;5080883;28;20051;-66
2022/08/10 05:52:26;;;;;;;0.70;0.70;;;25.00;48.60;24.10;102318.00;;;;5093678;28;20044;-66
2022/08/10 05:55:12;;;;;;;1.30;0.75;;;25.00;48.60;24.10;102309.00;;;;5084061;28;20195;-66
2022/08/10 05:57:58;;;;;;;0.88;0.80;;;25.00;48.60;24.10;102302.00;;;;5083394;28;20484;-66
2022/08/10 06:00:45;;;;;;;1.08;0.90;;;25.00;48.50;24.10;102306.00;;;;5073889;28;20524;-66
2022/08/10 06:03:35;;;;;;;1.17;0.80;;;25.00;48.50;24.10;102315.00;;;;5077460;28;20059;-66
2022/08/10 06:06:21;;;;;;;0.93;0.82;;;25.00;48.50;24.10;102319.00;;;;5083081;28;20439;-66
2022/08/10 06:09:07;;;;;;;0.90;0.90;;;25.00;48.40;24.10;102313.00;;;;5075559;28;20040;-66
2022/08/10 06:11:53;;;;;;;0.80;0.80;;;25.00;48.40;24.10;102324.00;;;;5061747;28;20043;-66
2022/08/10 06:17:44;;;;;;;1.10;0.90;;;25.00;48.40;24.10;102317.00;;;;5087954;28;20039;-66
2022/08/10 06:20:30;;;;;;;0.82;0.70;;;25.10;48.40;24.10;102318.00;;;;5074953;28;20475;-66
2022/08/10 06:23:16;;;;;;;1.33;0.93;;;25.00;48.30;24.10;102317.00;;;;5094568;28;20070;-66
2022/08/10 06:26:02;;;;;;;1.20;0.85;;;25.10;48.40;24.10;102312.00;;;;5074192;28;20036;-66
2022/08/10 06:29:01;;;;;;;1.10;0.90;;;25.10;48.40;24.10;102317.00;;;;5091359;28;20038;-66
2022/08/10 06:31:49;;;;;;;1.45;1.02;;;25.10;48.40;24.10;102322.00;;;;5078306;28;20048;-66
2022/08/10 06:34:39;;;;;;;2.03;0.85;;;25.10;48.30;24.10;102322.00;;;;5075770;28;20080;-66
2022/08/10 06:37:26;;;;;;;1.58;0.63;;;25.10;48.30;24.10;102323.00;;;;5075145;28;20042;-66
2022/08/10 06:40:12;;;;;;;1.05;0.95;;;25.10;48.30;24.20;102321.00;;;;5062048;28;20501;-66
2022/08/10 06:42:58;;;;;;;1.48;0.88;;;25.20;48.40;24.20;102325.00;;;;5075649;28;20032;-66
2022/08/10 06:45:54;;;;;;;1.48;0.80;;;25.10;48.30;24.20;102328.00;;;;5075608;28;20040;-66
2022/08/10 06:48:48;;;;;;;0.80;0.80;;;25.20;48.40;24.20;102330.00;;;;5072778;28;20043;-66
2022/08/10 06:51:35;;;;;;;1.77;1.08;;;25.20;48.30;24.20;102319.00;;;;5077695;28;20059;-66
2022/08/10 06:54:23;;;;;;;1.90;0.88;;;25.20;48.30;24.20;102317.00;;;;5074398;28;20546;-66
2022/08/10 06:57:10;;;;;;;0.88;0.88;;;25.20;48.40;24.20;102314.00;;;;5072595;28;20111;-66
2022/08/10 06:59:56;;;;;;;1.42;0.80;;;25.20;48.40;24.20;102313.00;;;;5062679;28;20042;-66
2022/08/10 07:02:49;;;;;;;1.10;0.88;;;25.20;48.30;24.20;102316.00;;;;5081456;28;20511;-66
2022/08/10 07:05:39;;;;;;;1.00;0.60;;;25.20;48.30;24.20;102312.00;;;;5075320;28;20044;-66
2022/08/10 07:08:25;;;;;;;0.75;0.75;;;25.20;48.30;24.20;102320.00;;;;5079131;28;20051;-66
2022/08/10 07:11:11;;;;;;;2.25;0.85;;;25.20;48.20;24.20;102320.00;;;;5073680;28;20063;-66
2022/08/10 07:13:57;;;;;;;1.70;0.88;;;25.20;48.20;24.20;102320.00;;;;5052944;28;20036;-66
2022/08/10 07:16:44;;;;;;;1.73;0.82;;;25.20;48.20;24.20;102312.00;;;;5069704;28;20044;-66
2022/08/10 07:19:31;;;;;;;2.17;0.83;;;25.20;48.20;24.20;102311.00;;;;5058024;28;20059;-66
2022/08/10 07:22:20;;;;;;;1.08;0.90;;;25.20;48.30;24.20;102320.00;;;;5077202;28;20639;-66
2022/08/10 07:25:06;;;;;;;1.30;0.80;;;25.20;48.20;24.20;102319.00;;;;5064917;28;20098;-66
2022/08/10 07:27:54;;;;;;;1.55;1.10;;;25.20;48.10;24.20;102320.00;;;;5062157;28;20075;-66
2022/08/10 07:30:40;;;;;;;0.90;0.90;;;25.20;48.10;24.20;102312.00;;;;5065833;28;20040;-66
2022/08/10 07:33:26;;;;;;;1.27;0.73;;;25.30;48.20;24.20;102316.00;;;;5074778;28;20127;-66
2022/08/10 07:36:12;;;;;;;1.05;0.98;;;25.30;48.20;24.20;102315.00;;;;5065551;28;20043;-66
2022/08/10 07:38:59;;;;;;;0.75;0.75;;;25.30;48.20;24.20;102319.00;;;;5071274;28;20032;-66
2022/08/10 07:41:47;;;;;;;0.98;0.95;;;25.20;48.10;24.20;102309.00;;;;5066507;28;20040;-66
2022/08/10 07:44:33;;;;;;;2.10;1.20;;;25.20;48.00;24.20;102323.00;;;;5075897;28;20046;-66
2022/08/10 07:47:30;;;;;;;3.40;0.90;;;25.30;48.10;24.20;102319.00;;;;5076061;28;20048;-66
2022/08/10 07:50:19;;;;;;;1.48;1.00;;;25.30;48.10;24.20;102317.00;;;;5065785;28;20371;-66
2022/08/10 07:53:09;;;;;;;1.45;0.90;;;25.30;48.00;24.20;102314.00;;;;5070284;28;20400;-66
2022/08/10 07:55:55;;;;;;;0.77;0.77;;;25.20;47.80;24.20;102319.00;;;;5077871;28;20031;-66
2022/08/10 07:58:47;;;;;;;0.88;0.82;;;25.30;47.80;24.20;102324.00;;;;5081256;28;20060;-66
2022/08/10 08:01:35;;;;;;;1.10;0.77;;;25.30;47.70;24.20;102318.00;;;;5036273;28;20131;-66
2022/08/10 08:04:23;;;;;;;2.22;1.00;;;25.30;47.60;24.30;102317.00;;;;5063942;28;20082;-66
2022/08/10 08:07:09;;;;;;;0.98;0.90;;;25.30;47.60;24.20;102316.00;;;;5058495;28;20126;-66
2022/08/10 08:09:55;;;;;;;1.55;1.00;;;25.30;47.60;24.20;102323.00;;;;5086144;28;20076;-66
2022/08/10 08:12:41;;;;;;;2.92;1.00;;;25.30;47.60;24.20;102317.00;;;;5059068;28;20382;-66
2022/08/10 08:15:27;;;;;;;3.88;1.05;;;25.30;47.60;24.30;102323.00;;;;5075029;28;20047;-66
2022/08/10 08:18:13;;;;;;;1.70;0.95;;;25.30;47.70;24.30;102325.00;;;;5064540;28;20041;-66
2022/08/10 08:20:59;;;;;;;1.38;1.05;;;25.30;47.60;24.30;102331.00;;;;5078537;28;20438;-66
2022/08/10 08:23:46;;;;;;;1.00;0.90;;;25.40;47.60;24.30;102316.00;;;;5046125;28;20048;-66
2022/08/10 08:26:32;;;;;;;1.08;0.80;;;25.20;47.40;24.30;102318.00;;;;5073734;28;20059;-66
2022/08/10 08:29:19;;;;;;;2.28;1.10;;;25.30;47.50;24.30;102320.00;;;;5065841;28;20048;-66
2022/08/10 08:32:05;;;;;;;1.20;0.90;;;25.30;47.50;24.30;102318.00;;;;5077054;28;20070;-66
2022/08/10 08:34:55;;;;;;;1.02;0.80;;;25.30;47.50;24.30;102318.00;;;;5071201;28;20431;-66
2022/08/10 08:37:41;;;;;;;2.17;1.10;;;25.30;47.50;24.30;102321.00;;;;5072636;28;20040;-66
2022/08/10 08:40:40;;;;;;;2.58;0.98;;;25.30;47.40;24.30;102326.00;;;;5059024;28;20123;-66
2022/08/10 08:43:27;;;;;;;1.42;0.80;;;25.30;47.40;24.30;102318.00;;;;5071687;28;20044;-66
2022/08/10 08:46:54;;;;;;;1.23;1.07;;;25.30;47.40;24.30;102320.00;;;;5086366;28;20429;-66
2022/08/10 08:50:15;;;;;;;2.38;1.30;;;25.30;47.30;24.30;102320.00;;;;5066194;28;20120;-66
2022/08/10 08:53:09;;;;;;;3.45;1.15;;;25.30;47.30;24.20;102321.00;;;;5059290;28;20117;-66
2022/08/10 08:56:20;;;;;;;5.13;1.27;;;25.20;47.10;24.20;102318.00;;;;5064883;28;20060;-66
2022/08/10 08:59:40;;;;;;;1.17;0.90;;;25.30;47.00;24.30;102311.00;;;;5079308;28;20039;-66
2022/08/10 09:03:05;;;;;;;3.53;0.63;;;25.30;47.10;24.20;102310.00;;;;5089629;28;20485;-66
2022/08/10 09:06:03;;;;;;;1.85;0.68;;;25.30;47.20;24.20;102308.00;;;;5081257;28;20127;-66
2022/08/10 09:09:05;;;;;;;;;;;25.30;47.20;24.20;102300.00;;;;5087375;28;20032;-66
2022/08/10 09:12:12;;;;;;;1.88;0.75;;;25.30;47.30;24.20;102309.00;;;;5090851;28;19915;-66
2022/08/10 09:15:29;;;;;;;0.80;0.73;;;25.30;46.90;24.20;102302.00;;;;5086507;28;20115;-66
2022/08/10 09:18:22;;;;;;;1.30;0.90;;;25.30;46.90;24.20;102305.00;;;;5086276;28;20504;-66
2022/08/10 09:21:40;;;;;;;4.90;1.05;;;25.30;46.70;24.20;102290.00;;;;5075144;28;20474;-66
2022/08/10 09:24:40;;;;;;;2.83;0.80;;;25.30;46.70;24.20;102296.00;;;;5063774;28;20040;-66
2022/08/10 09:27:47;;;;;;;1.00;0.90;;;25.30;46.30;24.20;102304.00;;;;5074965;28;20047;-66
2022/08/10 09:30:45;;;;;;;1.52;0.80;;;25.30;46.10;24.20;102289.00;;;;5074872;28;20049;-66
2022/08/10 09:33:46;;;;;;;1.33;1.00;;;25.30;46.10;24.20;102297.00;;;;5078980;28;20114;-66
2022/08/10 09:37:24;;;;;;;1.00;0.60;;;25.30;45.80;24.20;102302.00;;;;5073305;28;20101;-66
2022/08/10 09:40:47;;;;;;;1.00;0.90;;;25.30;46.50;24.20;102291.00;;;;5064650;28;20036;-66
2022/08/10 09:44:19;;;;;;;2.13;0.95;;;25.30;45.70;24.20;102291.00;;;;5076397;28;20055;-66
2022/08/10 09:47:23;;;;;;;1.27;0.85;;;25.30;45.60;24.20;102284.00;;;;5083685;28;20351;-66
2022/08/10 09:50:37;;;;;;;1.23;0.95;;;25.30;45.70;24.20;102279.00;;;;5091034;28;20058;-66
2022/08/10 09:53:54;;;;;;;2.30;0.93;;;25.30;45.50;24.20;102275.00;;;;5076501;28;20043;-66
2022/08/10 09:57:14;;;;;;;3.45;0.95;;;25.30;45.60;24.20;102277.00;;;;5078202;28;20040;-66
2022/08/10 10:00:28;;;;;;;1.23;0.85;;;25.30;45.50;24.20;102282.00;;;;5080586;28;20032;-66
2022/08/10 10:03:35;;;;;;;1.17;0.85;;;25.30;45.40;24.20;102273.00;;;;5070149;28;20506;-66
2022/08/10 10:06:27;;;;;;;1.30;0.77;;;25.30;45.60;24.20;102274.00;;;;5077970;28;20043;-66
2022/08/10 10:09:55;;;;;;;0.77;0.70;;;25.30;45.60;24.30;102272.00;;;;5069168;28;20040;-66
2022/08/10 10:12:55;;;;;;;0.98;0.80;;;25.20;45.50;24.30;102268.00;;;;5053233;28;20042;-66
2022/08/10 10:16:08;;;;;;;1.13;0.80;;;25.30;45.50;24.20;102272.00;;;;5080510;28;20044;-66
2022/08/10 10:19:46;;;;;;;1.10;0.82;;;25.20;45.40;24.30;102257.00;;;;5073748;28;20036;-66
2022/08/10 10:23:13;;;;;;;2.22;0.88;;;25.30;45.50;24.30;102244.00;;;;5068228;28;20421;-66
2022/08/10 10:26:19;;;;;;;1.35;0.80;;;25.30;45.60;24.20;102251.00;;;;5084597;28;20100;-66
2022/08/10 10:29:39;;;;;;;1.13;0.70;;;25.30;45.40;24.30;102240.00;;;;5086053;28;20604;-66
2022/08/10 10:32:37;;;;;;;1.83;1.05;;;25.30;45.40;24.30;102242.00;;;;5083643;28;20504;-66
2022/08/10 10:35:51;;;;;;;1.10;0.98;;;25.40;45.60;24.30;102245.00;;;;5071778;28;20097;-67
2022/08/10 10:38:37;;;;;;;1.38;0.80;;;25.40;45.50;24.30;102235.00;;;;5078729;28;20090;-66
2022/08/10 10:41:49;;;;;;;1.98;0.75;;;25.40;45.40;24.30;102227.00;;;;5072650;28;20044;-66
2022/08/10 10:44:58;;;;;;;1.23;0.88;;;25.30;45.30;24.30;102233.00;;;;5065761;28;20079;-66
2022/08/10 10:48:18;;;;;;;0.98;0.80;;;25.40;45.30;24.30;102237.00;;;;5079061;28;20051;-66
2022/08/10 10:51:28;;;;;;;1.30;0.80;;;25.40;45.30;24.30;102223.00;;;;5060024;28;20040;-66
2022/08/10 10:54:20;;;;;;;1.55;0.80;;;25.40;45.40;24.30;102224.00;;;;5067729;28;20044;-66
2022/08/10 10:57:31;;;;;;;0.85;0.77;;;25.30;45.10;24.30;102221.00;;;;5074355;28;20044;-66
2022/08/10 11:00:17;;;;;;;1.25;0.85;;;25.40;45.10;24.30;102214.00;;;;5069723;28;20055;-66
2022/08/10 11:03:51;;;;;;;3.13;0.77;;;25.40;45.10;24.30;102214.00;;;;5060590;28;20044;-66
2022/08/10 11:07:04;;;;;;;2.05;1.17;;;25.40;45.20;24.30;102211.00;;;;5084616;28;20040;-66
2022/08/10 11:09:58;;;;;;;1.77;0.90;;;25.40;45.50;24.30;102212.00;;;;5072901;28;20040;-66
2022/08/10 11:12:55;;;;;;;1.20;0.80;;;25.40;45.10;24.30;102203.00;;;;5072684;28;20051;-66
2022/08/10 11:16:00;;;;;;;0.82;0.82;;;25.40;45.00;24.30;102205.00;;;;5060324;28;20032;-67
2022/08/10 11:18:54;;;;;;;0.80;0.80;;;25.40;45.00;24.30;102206.00;;;;5072514;28;20035;-66
2022/08/10 11:21:51;;;;;;;1.13;1.02;;;25.40;45.00;24.30;102199.00;;;;5068832;28;20047;-66
2022/08/10 11:25:25;;;;;;;0.80;0.50;;;25.40;45.30;24.30;102206.00;;;;5073317;28;20047;-66
2022/08/10 11:28:30;;;;;;;1.55;0.70;;;25.50;45.40;24.30;102204.00;;;;5017852;28;20332;-67
2022/08/10 11:31:32;;;;;;;1.58;0.90;;;25.50;45.40;24.30;102193.00;;;;5070265;28;20446;-66
2022/08/10 11:34:36;;;;;;;3.17;0.80;;;25.50;45.20;24.30;102191.00;;;;5072612;28;20079;-66
2022/08/10 11:37:55;;;;;;;2.67;1.05;;;25.50;45.20;24.30;102199.00;;;;5066306;28;20052;-66
2022/08/10 11:40:48;;;;;;;2.15;0.90;;;25.50;45.10;24.30;102190.00;;;;5047212;28;20051;-66
2022/08/10 11:43:38;;;;;;;1.58;0.95;;;25.50;45.00;24.40;102190.00;;;;5077835;28;20429;-66
2022/08/10 11:46:29;;;;;;;1.48;0.95;;;25.50;45.00;24.40;102184.00;;;;5066558;28;20054;-66
2022/08/10 11:49:34;;;;;;;4.75;0.93;;;25.50;44.90;24.40;102185.00;;;;5059891;28;20043;-66
2022/08/10 11:52:38;;;;;;;0.90;0.90;;;25.50;44.70;24.40;102189.00;;;;5070023;28;20422;-66
2022/08/10 11:55:31;;;;;;;0.80;0.70;;;25.50;44.80;24.40;102183.00;;;;5073854;28;20040;-66
2022/08/10 12:01:26;;;;;;;1.30;0.90;;;25.50;44.40;24.40;102184.00;;;;5069001;28;20104;-66
2022/08/10 12:04:13;;;;;;;1.00;0.90;;;25.50;44.10;24.40;102174.00;;;;5066543;28;20044;-66
2022/08/10 12:06:59;;;;;;;1.05;0.80;;;25.50;44.10;24.40;102173.00;;;;5073321;28;20040;-66
2022/08/10 12:09:45;;;;;;;1.73;0.60;;;25.50;44.00;24.40;102169.00;;;;5060030;28;20091;-66
2022/08/10 12:12:33;;;;;;;1.60;0.65;;;25.50;43.90;24.40;102175.00;;;;5062935;28;20059;-66
2022/08/10 12:15:33;;;;;;;3.70;0.65;;;25.50;43.70;24.40;102174.00;;;;5077312;28;20489;-66
2022/08/10 12:18:25;;;;;;;2.90;0.88;;;25.60;43.80;24.40;102173.00;;;;5047810;28;20058;-66
2022/08/10 12:21:27;;;;;;;1.92;0.70;;;25.60;43.70;24.40;102161.00;;;;5074894;28;20119;-66
2022/08/10 12:24:25;;;;;;;0.70;0.60;;;25.60;43.60;24.40;102166.00;;;;5070528;28;20458;-66
2022/08/10 12:27:53;;;;;;;0.88;0.82;;;25.60;43.50;24.40;102163.00;;;;5076787;28;20042;-66
2022/08/10 12:30:45;;;;;;;1.33;0.70;;;25.60;43.50;24.40;102154.00;;;;5026367;28;20073;-66
2022/08/10 12:33:35;;;;;;;2.10;0.60;;;25.70;43.50;24.40;102153.00;;;;5064176;28;20083;-66
2022/08/10 12:36:43;;;;;;;0.77;0.63;;;25.70;43.40;24.40;102158.00;;;;5063260;28;20043;-66
2022/08/10 12:39:30;;;;;;;;;;;25.70;43.30;24.40;102147.00;;;;5074894;28;20036;-66
2022/08/10 12:42:25;;;;;;;0.93;0.68;;;25.70;43.90;24.40;102150.00;;;;5073386;28;20372;-66
2022/08/10 12:45:31;;;;;;;1.40;0.98;;;25.70;43.30;24.50;102155.00;;;;5067759;28;20478;-66
2022/08/10 12:48:49;;;;;;;2.33;1.02;;;25.70;43.20;24.50;102140.00;;;;5055251;28;20089;-67
2022/08/10 12:51:37;;;;;;;1.65;0.80;;;25.70;43.10;24.50;102143.00;;;;5076898;28;20044;-67
2022/08/10 12:54:23;;;;;;;0.65;0.52;;;25.70;43.10;24.50;102142.00;;;;5064981;28;20537;-66